Time;durP1;ratioP1;P1;durP2;ratioP2;P2;SDS_P1;SDS_P2;PMS_P1;PMS_P2;Temp;Humidity;BMP_temperature;BMP_pressure;BME280_temperature;BME280_humidity;BME280_pressure;Samples;Min_cycle;Max_cycle;Signal;HPM_P1;HPM_P2
2022/10/11 00:00:35;;;;;;;15.93;4.13;;;7.50;99.90;;;;;;5026372;28;20037;-62
2022/10/11 00:03:02;;;;;;;14.15;3.67;;;7.40;99.90;;;;;;5027701;28;20064;-62
2022/10/11 00:05:29;;;;;;;17.00;5.18;;;7.30;99.90;;;;;;5027563;28;20046;-62
2022/10/11 00:07:55;;;;;;;8.40;3.83;;;7.30;99.90;;;;;;5028192;28;20057;-62
2022/10/11 00:10:22;;;;;;;20.67;4.50;;;7.30;99.90;;;;;;5027996;28;20054;-61
2022/10/11 00:12:51;;;;;;;16.10;3.58;;;7.40;99.90;;;;;;5028231;28;20049;-61
2022/10/11 00:15:20;;;;;;;9.82;2.83;;;7.40;99.90;;;;;;5027799;28;20389;-62
2022/10/11 00:17:47;;;;;;;11.55;5.05;;;7.40;99.90;;;;;;5027878;28;20050;-62
2022/10/11 00:20:13;;;;;;;12.80;3.05;;;7.30;99.90;;;;;;5027715;28;20423;-61
2022/10/11 00:22:40;;;;;;;10.00;3.30;;;7.40;99.90;;;;;;5027914;28;20053;-62
2022/10/11 00:25:08;;;;;;;15.73;3.67;;;7.40;99.90;;;;;;5027882;28;20052;-62
2022/10/11 00:27:35;;;;;;;13.45;3.38;;;7.40;99.90;;;;;;5028480;28;20050;-62
2022/10/11 00:30:03;;;;;;;14.18;3.75;;;7.40;99.90;;;;;;5027697;28;20115;-63
2022/10/11 00:32:31;;;;;;;12.45;3.88;;;7.40;99.90;;;;;;5027807;28;20053;-62
2022/10/11 00:35:03;;;;;;;13.68;3.10;;;7.30;99.90;;;;;;5027667;28;20045;-62
2022/10/11 00:37:33;;;;;;;12.52;3.83;;;7.30;99.90;;;;;;5029693;28;20479;-62
2022/10/11 00:40:00;;;;;;;15.48;3.42;;;7.30;99.90;;;;;;5031796;28;20049;-62
2022/10/11 00:42:27;;;;;;;14.80;4.40;;;7.20;99.90;;;;;;5031310;28;20493;-62
2022/10/11 00:45:26;;;;;;;9.98;2.95;;;7.10;99.90;;;;;;4683052;28;9999864;-62
2022/10/11 00:48:03;;;;;;;10.98;3.55;;;7.10;99.90;;;;;;5020452;28;20050;-62
2022/10/11 00:50:32;;;;;;;14.55;3.40;;;7.10;99.90;;;;;;5012850;28;20077;-62
2022/10/11 00:53:00;;;;;;;10.57;3.90;;;7.20;99.90;;;;;;5013667;28;20149;-62
2022/10/11 00:55:30;;;;;;;11.88;3.33;;;7.10;99.90;;;;;;5013314;28;20041;-63
2022/10/11 00:57:57;;;;;;;10.52;3.75;;;7.10;99.90;;;;;;5031018;28;20053;-63
2022/10/11 01:00:24;;;;;;;17.17;6.28;;;7.10;99.90;;;;;;5013364;28;20048;-63
2022/10/11 01:02:51;;;;;;;15.70;3.38;;;7.10;99.90;;;;;;5031264;28;20059;-65
2022/10/11 01:05:17;;;;;;;14.85;4.95;;;7.00;99.90;;;;;;4996967;28;20119;-62
2022/10/11 01:07:56;;;;;;;9.10;2.72;;;7.10;99.90;;;;;;5028753;28;20127;-62
2022/10/11 01:10:23;;;;;;;9.88;3.20;;;7.10;99.90;;;;;;5013242;28;20137;-62
2022/10/11 01:13:19;;;;;;;11.65;3.75;;;7.00;99.90;;;;;;5030672;28;20507;-63
2022/10/11 01:16:00;;;;;;;13.75;2.75;;;7.00;99.90;;;;;;5030697;28;20397;-63
2022/10/11 01:18:48;;;;;;;11.23;2.83;;;7.00;99.90;;;;;;5013256;28;20059;-64
2022/10/11 01:21:38;;;;;;;10.60;3.47;;;7.00;99.90;;;;;;5014826;28;20053;-65
2022/10/11 01:24:31;;;;;;;10.85;2.78;;;6.90;99.90;;;;;;5022288;28;20112;-63
2022/10/11 01:27:12;;;;;;;11.35;4.55;;;6.90;99.90;;;;;;5012744;28;20049;-64
2022/10/11 01:30:17;;;;;;;15.35;2.97;;;6.80;99.90;;;;;;5013141;28;20064;-63
2022/10/11 01:32:49;;;;;;;23.30;3.75;;;6.80;99.90;;;;;;4989533;28;20053;-62
2022/10/11 01:35:22;;;;;;;10.13;2.97;;;6.70;99.90;;;;;;5013376;28;20052;-61
2022/10/11 01:37:54;;;;;;;8.60;2.55;;;6.80;99.90;;;;;;5013322;28;20046;-62
2022/10/11 01:40:24;;;;;;;10.55;2.70;;;6.90;99.90;;;;;;5012575;28;20045;-62
2022/10/11 01:42:50;;;;;;;9.57;2.90;;;6.90;99.90;;;;;;5012472;28;20500;-64
2022/10/11 01:45:17;;;;;;;10.18;3.05;;;6.80;99.90;;;;;;5012531;28;20041;-64
2022/10/11 01:47:44;;;;;;;11.60;2.67;;;6.80;99.90;;;;;;5012179;28;20056;-64
2022/10/11 01:50:34;;;;;;;6.50;2.80;;;6.80;99.90;;;;;;5029818;28;20049;-61
2022/10/11 01:53:16;;;;;;;7.75;2.47;;;6.80;99.90;;;;;;5012457;28;20060;-62
2022/10/11 01:55:54;;;;;;;13.70;3.20;;;6.70;99.90;;;;;;5030208;28;20237;-62
2022/10/11 01:58:30;;;;;;;9.32;2.75;;;6.60;99.90;;;;;;5012194;28;20045;-62
2022/10/11 02:01:05;;;;;;;5.90;2.60;;;6.70;99.90;;;;;;5013600;28;20053;-64
2022/10/11 02:03:47;;;;;;;16.10;3.33;;;6.70;99.90;;;;;;5012076;28;20077;-62
2022/10/11 02:06:19;;;;;;;14.43;3.13;;;6.70;99.90;;;;;;5012064;28;20168;-61
2022/10/11 02:08:58;;;;;;;12.27;3.00;;;6.60;99.90;;;;;;5029660;28;20041;-62
2022/10/11 02:11:29;;;;;;;14.55;2.95;;;6.60;99.90;;;;;;5012369;28;20045;-62
2022/10/11 02:14:05;;;;;;;12.40;2.95;;;6.50;99.90;;;;;;5011939;28;20049;-62
2022/10/11 02:16:37;;;;;;;13.25;3.45;;;6.50;99.90;;;;;;4994451;28;20500;-62
2022/10/11 02:19:04;;;;;;;15.50;3.38;;;6.50;99.90;;;;;;5022125;28;20048;-62
2022/10/11 02:21:32;;;;;;;14.05;3.22;;;6.50;99.90;;;;;;4992185;28;20050;-62
2022/10/11 02:24:15;;;;;;;11.50;2.83;;;6.50;99.90;;;;;;5002838;28;20045;-63
2022/10/11 02:26:42;;;;;;;9.90;2.92;;;6.60;99.90;;;;;;5012131;28;20049;-62
2022/10/11 02:29:09;;;;;;;15.77;3.45;;;6.50;99.90;;;;;;5011663;28;20399;-63
2022/10/11 02:31:36;;;;;;;8.82;3.15;;;6.50;99.90;;;;;;5011711;28;20068;-62
2022/10/11 02:34:16;;;;;;;15.00;3.17;;;6.40;99.90;;;;;;5011588;28;20045;-62
2022/10/11 02:36:53;;;;;;;17.15;4.05;;;6.30;99.90;;;;;;5011659;28;20073;-63
2022/10/11 02:39:27;;;;;;;11.10;2.80;;;6.30;99.90;;;;;;5029158;28;20056;-62
2022/10/11 02:41:55;;;;;;;13.73;4.25;;;6.30;99.90;;;;;;5011491;28;20049;-61
2022/10/11 02:44:58;;;;;;;9.43;2.90;;;6.20;99.90;;;;;;5011431;28;20049;-62
2022/10/11 02:47:27;;;;;;;8.38;2.60;;;6.20;99.90;;;;;;5012130;28;20054;-61
2022/10/11 02:49:53;;;;;;;8.65;3.17;;;6.20;99.90;;;;;;5011185;28;20516;-62
2022/10/11 02:52:20;;;;;;;11.63;3.22;;;6.20;99.90;;;;;;5011302;28;20064;-61
2022/10/11 02:54:47;;;;;;;12.27;4.13;;;6.20;99.90;;;;;;5028813;28;20037;-61
2022/10/11 02:57:14;;;;;;;12.43;3.70;;;6.20;99.90;;;;;;5028894;28;20045;-62
2022/10/11 02:59:40;;;;;;;11.23;3.67;;;6.20;99.90;;;;;;5028498;28;20033;-62
2022/10/11 03:02:07;;;;;;;13.15;4.45;;;6.20;99.90;;;;;;5028262;28;20056;-62
2022/10/11 03:04:34;;;;;;;11.00;3.85;;;6.30;99.90;;;;;;5028718;28;20488;-61
2022/10/11 03:07:00;;;;;;;13.02;3.50;;;6.20;99.90;;;;;;5028377;28;20053;-63
2022/10/11 03:09:27;;;;;;;13.23;4.22;;;6.20;99.90;;;;;;5028815;28;20049;-62
2022/10/11 03:11:54;;;;;;;13.15;3.53;;;6.20;99.90;;;;;;5025037;28;20060;-61
2022/10/11 03:14:20;;;;;;;11.52;3.22;;;6.10;99.90;;;;;;5028660;28;20099;-62
2022/10/11 03:16:47;;;;;;;9.27;3.70;;;6.10;99.90;;;;;;5028258;28;20512;-62
2022/10/11 03:19:14;;;;;;;7.57;3.72;;;6.10;99.90;;;;;;5028471;28;20124;-62
2022/10/11 03:21:45;;;;;;;15.27;4.57;;;6.10;99.90;;;;;;5028164;28;20046;-62
2022/10/11 03:24:11;;;;;;;11.00;3.03;;;6.10;99.90;;;;;;5028845;28;20141;-62
2022/10/11 03:26:38;;;;;;;10.82;3.72;;;6.00;99.90;;;;;;5028238;28;20041;-64
2022/10/11 03:29:05;;;;;;;11.75;3.65;;;6.00;99.90;;;;;;5010923;28;20045;-63
2022/10/11 03:31:31;;;;;;;12.15;3.60;;;6.00;99.90;;;;;;5028522;28;20034;-62
2022/10/11 03:33:58;;;;;;;9.93;3.53;;;6.00;99.90;;;;;;5010773;28;20061;-62
2022/10/11 03:36:25;;;;;;;12.40;3.38;;;6.00;99.90;;;;;;5028000;28;20045;-63
2022/10/11 03:38:52;;;;;;;12.13;3.10;;;6.00;99.90;;;;;;5028654;28;20049;-63
2022/10/11 03:41:18;;;;;;;9.30;3.47;;;6.00;99.90;;;;;;5028213;28;20041;-60
2022/10/11 03:43:45;;;;;;;13.85;3.97;;;5.90;99.90;;;;;;5028571;28;20136;-62
2022/10/11 03:46:12;;;;;;;10.50;2.78;;;5.90;99.90;;;;;;5010637;28;20046;-63
2022/10/11 03:48:39;;;;;;;12.73;3.10;;;5.90;99.90;;;;;;5028571;28;20049;-62
2022/10/11 03:51:05;;;;;;;11.48;2.92;;;5.90;99.90;;;;;;5028140;28;20042;-62
2022/10/11 03:53:32;;;;;;;8.00;2.50;;;5.90;99.90;;;;;;5028558;28;20467;-63
2022/10/11 03:55:59;;;;;;;7.00;2.40;;;5.80;99.90;;;;;;5028377;28;20048;-62
2022/10/11 03:58:31;;;;;;;17.33;3.38;;;5.70;99.90;;;;;;5025334;28;20086;-62
2022/10/11 04:00:58;;;;;;;20.35;3.25;;;5.70;99.90;;;;;;5028473;28;20057;-62
2022/10/11 04:03:25;;;;;;;8.73;2.60;;;5.70;99.90;;;;;;5026626;28;20045;-63
2022/10/11 04:05:52;;;;;;;15.82;2.55;;;5.70;99.90;;;;;;5027951;28;20053;-62
2022/10/11 04:08:19;;;;;;;16.50;3.78;;;5.70;99.90;;;;;;5010246;28;20087;-63
2022/10/11 04:10:47;;;;;;;11.10;3.13;;;5.70;99.90;;;;;;5027918;28;20523;-62
2022/10/11 04:13:14;;;;;;;12.30;5.03;;;5.70;99.90;;;;;;5013417;28;20125;-62
2022/10/11 04:15:40;;;;;;;9.60;3.72;;;5.70;99.90;;;;;;5032267;28;20049;-63
2022/10/11 04:18:07;;;;;;;8.68;2.60;;;5.80;99.90;;;;;;5031823;28;20055;-62
2022/10/11 04:20:34;;;;;;;10.90;2.72;;;5.80;99.90;;;;;;5031790;28;20041;-62
2022/10/11 04:23:01;;;;;;;13.75;5.05;;;5.80;99.90;;;;;;5013911;28;20053;-62
2022/10/11 04:25:28;;;;;;;7.10;2.80;;;5.70;99.90;;;;;;5031687;28;20051;-62
2022/10/11 04:27:54;;;;;;;11.18;2.20;;;5.70;99.90;;;;;;5028151;28;20077;-62
2022/10/11 04:30:21;;;;;;;10.48;3.42;;;5.70;99.90;;;;;;5031056;28;20072;-61
2022/10/11 04:32:48;;;;;;;10.13;3.20;;;5.50;99.90;;;;;;5013445;28;20136;-62
2022/10/11 04:35:15;;;;;;;8.95;3.28;;;5.50;99.90;;;;;;5031032;28;20045;-61
2022/10/11 04:37:41;;;;;;;5.30;2.67;;;5.50;99.90;;;;;;5031096;28;20137;-62
2022/10/11 04:40:09;;;;;;;9.25;3.70;;;5.40;99.90;;;;;;5030777;28;20056;-61
2022/10/11 04:42:36;;;;;;;12.60;3.40;;;5.40;99.90;;;;;;5031011;28;20056;-62
2022/10/11 04:45:02;;;;;;;6.30;2.92;;;5.50;99.90;;;;;;5030766;28;20053;-62
2022/10/11 04:47:29;;;;;;;12.60;3.60;;;5.50;99.90;;;;;;5031161;28;20076;-62
2022/10/11 04:49:56;;;;;;;6.65;3.20;;;5.50;99.90;;;;;;5030615;28;20045;-62
2022/10/11 04:52:23;;;;;;;8.43;3.05;;;5.50;99.90;;;;;;5030953;28;20049;-62
2022/10/11 04:54:51;;;;;;;6.97;2.60;;;5.60;99.90;;;;;;5030531;28;20136;-62
2022/10/11 04:57:18;;;;;;;5.90;3.05;;;5.60;99.90;;;;;;5030881;28;20056;-62
2022/10/11 04:59:45;;;;;;;8.98;4.03;;;5.50;99.90;;;;;;5030525;28;20076;-62
2022/10/11 05:02:15;;;;;;;11.00;3.40;;;5.40;99.90;;;;;;5030641;28;20049;-62
2022/10/11 05:04:42;;;;;;;10.88;3.40;;;5.40;99.90;;;;;;5030407;28;20049;-63
2022/10/11 05:07:09;;;;;;;7.78;3.72;;;5.40;99.90;;;;;;5030374;28;20517;-63
2022/10/11 05:09:36;;;;;;;10.00;3.20;;;5.40;99.90;;;;;;5030410;28;20041;-63
2022/10/11 05:12:03;;;;;;;8.27;3.03;;;5.40;99.90;;;;;;5030244;28;20580;-62
2022/10/11 05:14:30;;;;;;;15.93;3.28;;;5.40;99.90;;;;;;5030397;28;20076;-62
2022/10/11 05:16:56;;;;;;;7.28;2.22;;;5.40;99.90;;;;;;5017708;28;20092;-64
2022/10/11 05:19:23;;;;;;;12.35;2.45;;;5.30;99.90;;;;;;5016894;28;20516;-62
2022/10/11 05:21:50;;;;;;;13.70;3.92;;;5.30;99.90;;;;;;5030146;28;20041;-62
2022/10/11 05:24:17;;;;;;;11.10;2.92;;;5.40;99.90;;;;;;5028981;28;20057;-62
2022/10/11 05:26:43;;;;;;;16.90;3.00;;;5.40;99.90;;;;;;5030223;28;20129;-63
2022/10/11 05:29:10;;;;;;;12.35;5.70;;;5.30;99.90;;;;;;5029660;28;20053;-62
2022/10/11 05:31:37;;;;;;;8.60;2.22;;;5.30;99.90;;;;;;5030046;28;20053;-62
2022/10/11 05:34:04;;;;;;;11.70;3.35;;;5.40;99.90;;;;;;5029328;28;20096;-62
2022/10/11 05:36:31;;;;;;;13.02;2.38;;;5.40;99.90;;;;;;5029470;28;20041;-62
2022/10/11 05:38:57;;;;;;;8.13;3.25;;;5.30;99.90;;;;;;5029503;28;20076;-62
2022/10/11 05:41:24;;;;;;;10.82;2.70;;;5.30;99.90;;;;;;5029389;28;20048;-63
2022/10/11 05:43:51;;;;;;;12.27;2.55;;;5.30;99.90;;;;;;5029905;28;20050;-63
2022/10/11 05:46:18;;;;;;;12.75;2.70;;;5.40;99.90;;;;;;5029764;28;20048;-63
2022/10/11 05:48:44;;;;;;;12.43;3.20;;;5.30;99.90;;;;;;5029481;28;20049;-64
2022/10/11 05:51:11;;;;;;;10.95;3.10;;;5.30;99.90;;;;;;5029625;28;20056;-64
2022/10/11 05:53:38;;;;;;;12.48;2.70;;;5.30;99.90;;;;;;5029749;28;20136;-64
2022/10/11 05:56:14;;;;;;;9.57;2.90;;;5.30;99.90;;;;;;5029140;28;20504;-64
2022/10/11 05:58:41;;;;;;;10.45;3.50;;;5.30;99.90;;;;;;5012117;28;20307;-64
2022/10/11 06:01:15;;;;;;;12.90;4.28;;;5.30;99.90;;;;;;5029136;28;20045;-64
2022/10/11 06:03:42;;;;;;;13.73;2.92;;;5.30;99.90;;;;;;5029437;28;20062;-64
2022/10/11 06:06:09;;;;;;;18.27;3.50;;;5.20;99.90;;;;;;5029108;28;20503;-63
2022/10/11 06:08:36;;;;;;;16.00;4.13;;;5.20;99.90;;;;;;5029009;28;20069;-62
2022/10/11 06:11:17;;;;;;;15.18;5.93;;;5.10;99.90;;;;;;5028095;28;20046;-64
2022/10/11 06:13:44;;;;;;;10.88;3.08;;;5.10;99.90;;;;;;5003619;28;20049;-62
2022/10/11 06:16:12;;;;;;;14.50;4.05;;;5.10;99.90;;;;;;5028664;28;20048;-64
2022/10/11 06:18:39;;;;;;;17.10;4.70;;;5.10;99.90;;;;;;5003145;28;20131;-62
2022/10/11 06:21:05;;;;;;;13.50;3.97;;;5.10;99.90;;;;;;5011372;28;20047;-63
2022/10/11 06:23:32;;;;;;;11.65;3.95;;;5.10;99.90;;;;;;5011344;28;20128;-63
2022/10/11 06:26:05;;;;;;;10.38;3.30;;;5.10;99.90;;;;;;5028748;28;20096;-63
2022/10/11 06:28:33;;;;;;;10.65;3.10;;;5.10;99.90;;;;;;5026121;28;20053;-63
2022/10/11 06:31:02;;;;;;;9.10;3.30;;;5.20;99.90;;;;;;5011214;28;20060;-64
2022/10/11 06:33:29;;;;;;;9.48;3.15;;;5.20;99.90;;;;;;5026156;28;20053;-63
2022/10/11 06:36:04;;;;;;;17.05;4.05;;;5.20;99.90;;;;;;5010066;28;20120;-63
2022/10/11 06:38:31;;;;;;;10.25;2.95;;;5.20;99.90;;;;;;5009562;28;20104;-63
2022/10/11 06:41:17;;;;;;;19.85;4.95;;;5.20;99.90;;;;;;5018254;28;20056;-63
2022/10/11 06:43:44;;;;;;;8.90;3.10;;;5.20;99.90;;;;;;5027270;28;20048;-62
2022/10/11 06:46:11;;;;;;;14.38;3.13;;;5.30;99.90;;;;;;5028107;28;20487;-61
2022/10/11 06:48:42;;;;;;;14.32;2.60;;;5.30;99.90;;;;;;5023903;28;20057;-61
2022/10/11 06:51:10;;;;;;;14.77;3.97;;;5.30;99.90;;;;;;5010578;28;20049;-60
2022/10/11 06:53:36;;;;;;;12.98;2.70;;;5.30;99.90;;;;;;5023503;28;20047;-61
2022/10/11 06:56:04;;;;;;;9.50;2.38;;;5.40;99.90;;;;;;5026876;28;20053;-62
2022/10/11 06:58:32;;;;;;;10.48;2.88;;;5.40;99.90;;;;;;5027155;28;20045;-63
2022/10/11 07:01:03;;;;;;;12.77;2.75;;;5.40;99.90;;;;;;5028006;28;20055;-62
2022/10/11 07:03:30;;;;;;;13.20;3.90;;;5.50;99.90;;;;;;5010438;28;20076;-62
2022/10/11 07:06:24;;;;;;;12.77;4.03;;;5.60;99.90;;;;;;5025944;28;20065;-62
2022/10/11 07:08:51;;;;;;;12.93;3.10;;;5.60;99.90;;;;;;5002209;28;20132;-62
2022/10/11 07:11:21;;;;;;;12.65;2.67;;;5.70;99.90;;;;;;5008923;28;20162;-62
2022/10/11 07:14:08;;;;;;;8.02;3.00;;;5.70;99.90;;;;;;5008363;28;20045;-61
2022/10/11 07:16:35;;;;;;;18.15;5.53;;;5.70;99.90;;;;;;5026184;28;20045;-60
2022/10/11 07:19:03;;;;;;;18.98;3.25;;;5.80;99.90;;;;;;5026046;28;20148;-61
2022/10/11 07:21:30;;;;;;;15.02;3.70;;;5.80;99.90;;;;;;5027489;28;20045;-61
2022/10/11 07:23:57;;;;;;;9.75;3.20;;;5.80;99.90;;;;;;5027554;28;20516;-61
2022/10/11 07:26:24;;;;;;;15.77;3.95;;;5.90;99.90;;;;;;5010386;28;20132;-62
2022/10/11 07:28:51;;;;;;;12.02;3.50;;;5.80;99.90;;;;;;5010117;28;20061;-61
2022/10/11 07:31:20;;;;;;;12.20;4.35;;;5.90;99.90;;;;;;5027551;28;20199;-60
2022/10/11 07:33:47;;;;;;;18.50;3.40;;;6.00;99.90;;;;;;5026959;28;20080;-61
2022/10/11 07:36:13;;;;;;;17.73;4.15;;;6.00;99.90;;;;;;5026628;28;20052;-62
2022/10/11 07:38:41;;;;;;;10.57;4.00;;;6.10;99.90;;;;;;5026419;28;20069;-63
2022/10/11 07:41:08;;;;;;;7.93;4.32;;;6.10;99.90;;;;;;5026132;28;20160;-62
2022/10/11 07:43:36;;;;;;;10.27;4.00;;;6.20;99.90;;;;;;5023728;28;20041;-62
2022/10/11 07:46:05;;;;;;;20.02;3.53;;;6.20;99.90;;;;;;5026690;28;20052;-63
2022/10/11 07:48:34;;;;;;;14.32;4.57;;;6.30;99.90;;;;;;5033052;28;20066;-63
2022/10/11 07:51:05;;;;;;;23.05;6.22;;;6.30;99.90;;;;;;5033461;28;20037;-61
2022/10/11 07:53:37;;;;;;;17.13;4.85;;;6.50;99.90;;;;;;5033874;28;20220;-62
2022/10/11 07:56:04;;;;;;;14.57;4.20;;;6.50;99.90;;;;;;5008404;28;20042;-61
2022/10/11 07:58:32;;;;;;;16.75;4.47;;;6.60;99.90;;;;;;5033525;28;20057;-62
2022/10/11 08:00:59;;;;;;;11.85;3.22;;;6.70;99.90;;;;;;5033162;28;20042;-62
2022/10/11 08:03:26;;;;;;;12.35;2.95;;;6.80;99.90;;;;;;5014531;28;20050;-62
2022/10/11 08:05:52;;;;;;;17.92;3.83;;;6.90;99.90;;;;;;5028583;28;20132;-62
2022/10/11 08:08:19;;;;;;;13.23;3.58;;;7.00;99.90;;;;;;5033711;28;20056;-60
2022/10/11 08:10:46;;;;;;;14.48;3.67;;;7.00;99.90;;;;;;5033650;28;20049;-61
2022/10/11 08:13:13;;;;;;;18.00;3.92;;;7.10;99.90;;;;;;5033850;28;20083;-61
2022/10/11 08:15:40;;;;;;;22.02;4.53;;;7.30;99.90;;;;;;5015903;28;20445;-61
2022/10/11 08:18:06;;;;;;;19.73;5.10;;;7.40;99.90;;;;;;5033615;28;20092;-62
2022/10/11 08:20:33;;;;;;;19.83;3.72;;;7.40;99.90;;;;;;5033590;28;20045;-61
2022/10/11 08:23:00;;;;;;;16.55;4.63;;;7.60;99.90;;;;;;5033699;28;20046;-61
2022/10/11 08:25:27;;;;;;;23.13;4.53;;;7.60;99.90;;;;;;5033837;28;20069;-62
2022/10/11 08:27:54;;;;;;;12.93;3.70;;;7.70;99.90;;;;;;5033627;28;20089;-61
2022/10/11 08:30:20;;;;;;;19.58;4.15;;;7.80;99.90;;;;;;5034196;28;20045;-63
2022/10/11 08:32:47;;;;;;;17.00;3.35;;;7.90;99.90;;;;;;5033908;28;20050;-64
2022/10/11 08:35:14;;;;;;;11.60;4.00;;;8.00;99.90;;;;;;5033923;28;20046;-63
2022/10/11 08:37:41;;;;;;;24.92;4.68;;;8.10;99.90;;;;;;4995327;28;20042;-62
2022/10/11 08:40:14;;;;;;;21.05;3.72;;;8.20;99.90;;;;;;5013402;28;20061;-63
2022/10/11 08:42:47;;;;;;;18.17;4.93;;;8.30;99.90;;;;;;5004960;28;20075;-63
2022/10/11 08:45:43;;;;;;;29.95;4.65;;;8.40;99.90;;;;;;5016791;28;20053;-61
2022/10/11 08:48:34;;;;;;;32.08;4.80;;;8.60;99.90;;;;;;5018490;28;20046;-61
2022/10/11 08:51:04;;;;;;;17.40;3.70;;;9.00;99.90;;;;;;5005276;28;20049;-62
2022/10/11 08:53:55;;;;;;;14.95;3.67;;;9.30;99.90;;;;;;5016264;28;20124;-61
2022/10/11 08:56:22;;;;;;;13.35;4.28;;;9.70;99.90;;;;;;5034357;28;20053;-63
2022/10/11 08:59:04;;;;;;;16.48;3.80;;;10.00;99.90;;;;;;5031777;28;20246;-62
2022/10/11 09:01:31;;;;;;;18.52;3.88;;;10.50;99.90;;;;;;5012885;28;20041;-62
2022/10/11 09:03:59;;;;;;;18.23;4.55;;;10.80;99.90;;;;;;5013137;28;20050;-61
2022/10/11 09:06:39;;;;;;;19.48;5.95;;;10.90;99.90;;;;;;5030462;28;20069;-62
2022/10/11 09:09:41;;;;;;;33.45;5.32;;;11.00;99.90;;;;;;5013561;28;20064;-62
2022/10/11 09:12:26;;;;;;;23.30;4.72;;;11.00;99.90;;;;;;5021916;28;20056;-64
2022/10/11 09:15:27;;;;;;;25.13;4.60;;;11.00;99.90;;;;;;5030755;28;20083;-62
2022/10/11 09:17:57;;;;;;;18.55;3.80;;;10.90;99.90;;;;;;5029946;28;20523;-62
2022/10/11 09:20:39;;;;;;;14.15;3.92;;;10.80;99.90;;;;;;5030522;28;20049;-62
2022/10/11 09:23:43;;;;;;;19.67;4.32;;;10.80;99.90;;;;;;5030327;28;20054;-62
2022/10/11 09:26:19;;;;;;;18.08;3.88;;;10.80;99.90;;;;;;5010669;28;20140;-61
2022/10/11 09:29:08;;;;;;;17.00;4.60;;;10.70;99.90;;;;;;5012691;28;20060;-63
2022/10/11 09:31:36;;;;;;;16.52;4.25;;;10.70;99.90;;;;;;4995091;28;20104;-63
2022/10/11 09:34:10;;;;;;;14.55;4.35;;;10.70;99.90;;;;;;4995891;28;20058;-62
2022/10/11 09:36:50;;;;;;;13.85;3.53;;;10.70;99.90;;;;;;5030300;28;20385;-62
2022/10/11 09:39:29;;;;;;;21.05;4.35;;;10.80;99.90;;;;;;4994343;28;20046;-63
2022/10/11 09:42:00;;;;;;;24.33;5.35;;;10.80;99.90;;;;;;5029969;28;20042;-62
2022/10/11 09:44:35;;;;;;;16.73;4.28;;;10.80;99.90;;;;;;5029701;28;20488;-63
2022/10/11 09:47:03;;;;;;;24.15;5.35;;;10.90;99.90;;;;;;5029966;28;20543;-63
2022/10/11 09:49:34;;;;;;;22.42;3.63;;;10.90;99.90;;;;;;5029279;28;20050;-62
2022/10/11 09:52:02;;;;;;;19.27;3.53;;;11.00;99.90;;;;;;4976946;28;20058;-63
2022/10/11 09:54:43;;;;;;;19.17;5.00;;;11.10;99.90;;;;;;5007398;28;20453;-64
2022/10/11 09:57:23;;;;;;;19.90;4.22;;;11.10;99.90;;;;;;5009811;28;20052;-62
2022/10/11 10:00:19;;;;;;;23.65;4.32;;;11.10;99.90;;;;;;5025842;28;20053;-62
2022/10/11 10:02:47;;;;;;;24.02;4.30;;;11.20;99.90;;;;;;4994111;28;20046;-65
2022/10/11 10:05:17;;;;;;;24.58;4.10;;;11.30;99.90;;;;;;5011632;28;20045;-62
2022/10/11 10:07:58;;;;;;;29.23;4.15;;;11.30;99.90;;;;;;5029367;28;20523;-62
2022/10/11 10:10:57;;;;;;;28.52;3.88;;;11.30;99.90;;;;;;5028620;28;20100;-63
2022/10/11 10:13:42;;;;;;;19.55;3.47;;;11.40;99.90;;;;;;5011909;28;20049;-62
2022/10/11 10:16:21;;;;;;;22.77;5.43;;;11.50;99.90;;;;;;5003488;28;20501;-63
2022/10/11 10:18:49;;;;;;;15.75;3.78;;;11.50;99.90;;;;;;5029029;28;20052;-63
2022/10/11 10:21:16;;;;;;;22.83;4.10;;;11.50;99.90;;;;;;5011632;28;20042;-63
2022/10/11 10:23:43;;;;;;;24.25;4.28;;;11.60;99.90;;;;;;5011487;28;20046;-63
2022/10/11 10:26:16;;;;;;;15.25;4.05;;;11.60;99.90;;;;;;5011501;28;20056;-63
2022/10/11 10:29:06;;;;;;;34.67;4.47;;;11.60;99.90;;;;;;5001762;28;20050;-62
2022/10/11 10:31:38;;;;;;;15.45;3.00;;;11.60;99.90;;;;;;5025657;28;20050;-62
2022/10/11 10:34:30;;;;;;;19.98;4.43;;;11.80;99.90;;;;;;5028738;28;20128;-62
2022/10/11 10:37:02;;;;;;;18.95;4.30;;;11.80;99.90;;;;;;5011764;28;20049;-64
2022/10/11 10:39:40;;;;;;;31.98;5.55;;;11.90;99.90;;;;;;5011407;28;20056;-62
2022/10/11 10:42:14;;;;;;;19.85;3.97;;;12.00;99.90;;;;;;5028602;28;20053;-62
2022/10/11 10:44:41;;;;;;;19.83;3.65;;;12.00;99.90;;;;;;5011058;28;20503;-62
2022/10/11 10:47:14;;;;;;;21.55;3.38;;;12.10;99.90;;;;;;5028333;28;20096;-61
2022/10/11 10:49:51;;;;;;;19.33;3.90;;;12.10;99.90;;;;;;5011354;28;20056;-63
2022/10/11 10:52:45;;;;;;;13.27;2.63;;;12.10;99.90;;;;;;5026187;28;20060;-63
2022/10/11 10:55:25;;;;;;;15.13;3.38;;;12.10;99.90;;;;;;5010813;28;20515;-63
2022/10/11 10:58:04;;;;;;;14.98;2.83;;;12.20;99.90;;;;;;5017699;28;20141;-62
2022/10/11 11:00:41;;;;;;;14.63;3.45;;;12.20;99.90;;;;;;5028415;28;20042;-62
2022/10/11 11:03:11;;;;;;;22.17;3.75;;;12.30;99.90;;;;;;5001994;28;20055;-63
2022/10/11 11:05:44;;;;;;;14.80;2.78;;;12.30;99.90;;;;;;5010377;28;20052;-62
2022/10/11 11:08:35;;;;;;;15.23;2.85;;;12.30;99.90;;;;;;4999869;28;20053;-63
2022/10/11 11:11:31;;;;;;;15.52;3.58;;;12.40;99.90;;;;;;5019390;28;20045;-63
2022/10/11 11:14:36;;;;;;;20.35;2.95;;;12.50;99.90;;;;;;5012316;28;20056;-63
2022/10/11 11:17:18;;;;;;;12.38;3.20;;;12.50;99.90;;;;;;5024565;28;20072;-64
2022/10/11 11:20:06;;;;;;;15.88;3.47;;;12.50;99.90;;;;;;5027920;28;20060;-63
2022/10/11 11:23:06;;;;;;;12.60;2.63;;;12.50;99.90;;;;;;5026984;28;20585;-63
2022/10/11 11:25:43;;;;;;;13.68;3.05;;;12.60;99.90;;;;;;4992896;28;20068;-63
2022/10/11 11:28:13;;;;;;;13.50;2.60;;;12.60;99.90;;;;;;5019562;28;20042;-63
2022/10/11 11:30:56;;;;;;;10.70;2.33;;;12.60;99.90;;;;;;5008234;28;20137;-62
2022/10/11 11:33:38;;;;;;;24.35;4.28;;;12.60;99.90;;;;;;5027504;28;20259;-64
2022/10/11 11:36:13;;;;;;;16.33;2.85;;;12.70;99.90;;;;;;5010669;28;20080;-64
2022/10/11 11:38:39;;;;;;;11.70;2.53;;;12.80;99.90;;;;;;5009789;28;20043;-61
2022/10/11 11:41:19;;;;;;;16.10;2.47;;;13.00;99.90;;;;;;5028244;28;20053;-63
2022/10/11 11:43:54;;;;;;;21.70;2.90;;;13.00;99.90;;;;;;5026051;28;20061;-61
2022/10/11 11:46:23;;;;;;;9.73;2.00;;;13.10;99.90;;;;;;4989329;28;20052;-62
2022/10/11 11:48:50;;;;;;;13.40;2.50;;;13.20;99.90;;;;;;5009804;28;20049;-63
2022/10/11 11:51:20;;;;;;;16.10;2.92;;;13.20;99.90;;;;;;5010249;28;20416;-61
2022/10/11 11:53:50;;;;;;;14.38;2.42;;;13.20;99.90;;;;;;5009706;28;20045;-61
2022/10/11 11:56:55;;;;;;;10.07;2.92;;;13.20;99.90;;;;;;5027855;28;20048;-63
2022/10/11 11:59:30;;;;;;;14.50;2.75;;;13.30;99.90;;;;;;4980640;28;20052;-62
2022/10/11 12:02:19;;;;;;;9.63;2.83;;;13.40;99.90;;;;;;5010845;28;20045;-63
2022/10/11 12:04:47;;;;;;;14.73;3.45;;;13.40;99.90;;;;;;5010359;28;20049;-62
2022/10/11 12:07:16;;;;;;;15.95;3.00;;;13.40;99.90;;;;;;5027640;28;20065;-62
2022/10/11 12:09:50;;;;;;;16.88;3.65;;;13.40;99.90;;;;;;5010070;28;20053;-62
2022/10/11 12:12:36;;;;;;;12.55;2.78;;;13.40;99.90;;;;;;5027791;28;20041;-62
2022/10/11 12:15:09;;;;;;;8.85;2.17;;;13.30;99.90;;;;;;5009876;28;20059;-63
2022/10/11 12:18:14;;;;;;;16.15;2.88;;;13.30;99.90;;;;;;5027461;28;20049;-62
2022/10/11 12:20:41;;;;;;;10.15;2.33;;;13.30;99.90;;;;;;4985277;28;20043;-62
2022/10/11 12:23:41;;;;;;;16.10;3.25;;;13.30;99.90;;;;;;4990150;28;20409;-63
2022/10/11 12:26:35;;;;;;;12.00;2.60;;;13.40;99.90;;;;;;5007663;28;20424;-62
2022/10/11 12:29:40;;;;;;;15.13;2.60;;;13.50;99.90;;;;;;5010404;28;20635;-63
2022/10/11 12:32:09;;;;;;;11.52;2.40;;;13.50;99.90;;;;;;5027432;28;20053;-62
2022/10/11 12:34:41;;;;;;;14.80;2.63;;;13.60;99.90;;;;;;5030661;28;20041;-64
2022/10/11 12:37:17;;;;;;;22.10;2.80;;;13.70;99.90;;;;;;5013270;28;20049;-62
2022/10/11 12:39:51;;;;;;;19.10;3.75;;;13.90;99.90;;;;;;5030797;28;20084;-63
2022/10/11 12:42:34;;;;;;;15.73;3.00;;;14.00;99.90;;;;;;5031171;28;20050;-61
2022/10/11 12:45:11;;;;;;;16.40;2.85;;;14.00;99.90;;;;;;5030544;28;20523;-62
2022/10/11 12:47:37;;;;;;;16.95;2.42;;;14.00;99.90;;;;;;5030948;28;20045;-61
2022/10/11 12:50:17;;;;;;;15.07;2.67;;;14.10;99.90;;;;;;5030229;28;20532;-63
2022/10/11 12:52:54;;;;;;;15.85;3.85;;;14.20;99.90;;;;;;5013213;28;20045;-63
2022/10/11 12:55:31;;;;;;;12.98;2.58;;;14.20;99.90;;;;;;5013133;28;20515;-62
2022/10/11 12:58:16;;;;;;;12.43;2.83;;;14.20;99.90;;;;;;5012813;28;20041;-63
2022/10/11 13:00:54;;;;;;;14.85;3.05;;;14.20;99.90;;;;;;5030695;28;20053;-64
2022/10/11 13:03:40;;;;;;;13.15;2.95;;;14.20;99.90;;;;;;5011239;28;20133;-64
2022/10/11 13:06:19;;;;;;;18.17;2.15;;;14.30;99.90;;;;;;5027587;28;20083;-61
2022/10/11 13:09:12;;;;;;;16.27;3.03;;;14.40;99.90;;;;;;5013107;28;20049;-63
2022/10/11 13:12:03;;;;;;;15.70;2.92;;;14.40;99.90;;;;;;5013950;28;20054;-61
2022/10/11 13:14:35;;;;;;;11.70;2.78;;;14.40;99.90;;;;;;5005614;28;20356;-61